Air — ZCTD7 — position and weather

sailwx.info

Track history (hours):
 
Tides and Currents Weather Stations Pressure Air Temp Water Temp Dewpoint Dewpoint Depression Visibility Wind Speed Wind Dir Waves Ship Positions

Air

Last reported at 2017-Jul-23 01:30 UTC. Time now 2017-Jul-25 06:51 UTC.
Position N 42°60' E 007°03'.

Length 50 m; draft 3 m.

Type: Pleasure craft. MMSI: 319780000.

Date/timePositionNaut miles runAvg speedWind from/ knotsBaromVisibWave heightAir tempDewpointWater temp
2017-Jul-23 01:30N 42°60' E 007°03'611.0
2017-Jul-23 00:57N 42°57' E 007°10'511.1
2017-Jul-23 00:30N 42°54' E 007°16'1611.4
2017-Jul-22 23:04N 42°46' E 007°35'811.3
2017-Jul-22 22:20N 42°41' E 007°44'511.2
2017-Jul-22 21:52N 42°38' E 007°51'411.2
2017-Jul-22 21:29N 42°36' E 007°56'511.2
2017-Jul-22 21:00N 42°33' E 008°02'611.3
2017-Jul-22 20:30N 42°31' E 008°08'611.2
2017-Jul-22 20:00N 42°28' E 008°15'611.4
2017-Jul-22 19:30N 42°25' E 008°22'611.5
2017-Jul-22 19:00N 42°22' E 008°28'39 0.9
2017-Jul-20 23:48N 42°44' E 009°12'0 0.0
2017-Jul-20 23:24N 42°44' E 009°12'0 0.0
2017-Jul-20 18:33N 42°44' E 009°12'0 0.0
2017-Jul-20 13:38N 42°44' E 009°12'0 0.1
2017-Jul-20 13:29N 42°44' E 009°12'0 0.1
2017-Jul-20 12:49N 42°44' E 009°12'0 0.0
2017-Jul-20 12:26N 42°44' E 009°12'0 0.0
2017-Jul-20 12:00N 42°44' E 009°12'4 0.2
2017-Jul-19 17:53N 42°41' E 009°17'0 0.0
2017-Jul-19 17:30N 42°41' E 009°17'0 0.0
2017-Jul-19 16:59N 42°41' E 009°17'0 0.0
2017-Jul-19 16:25N 42°41' E 009°17'13 9.2
2017-Jul-19 14:57N 42°54' E 009°17'5 5.9
2017-Jul-19 14:08N 42°58' E 009°21'0 0.0
2017-Jul-19 13:36N 42°58' E 009°21'0 0.0
2017-Jul-19 13:30N 42°58' E 009°21'0 0.0
2017-Jul-19 12:59N 42°58' E 009°21'1 0.1
2017-Jul-19 05:36N 42°58' E 009°20'311.9
2017-Jul-19 05:19N 42°60' E 009°16'411.7
2017-Jul-19 05:00N 43°02' E 009°11'611.8
2017-Jul-19 04:30N 43°04' E 009°04'812.2
2017-Jul-19 03:50N 43°08' E 008°54'412.0
2017-Jul-19 03:31N 43°10' E 008°49'4412.1
2017-Jul-18 23:51N 43°29' E 007°55'411.5
2017-Jul-18 23:30N 43°31' E 007°50'611.4
2017-Jul-18 23:00N 43°34' E 007°43'711.7
2017-Jul-18 22:25N 43°37' E 007°34'11 1.5
2017-Jul-18 14:44N 43°42' E 007°20'4 0.2
2017-Jul-17 15:48N 43°44' E 007°25'0 0.0
2017-Jul-17 15:30N 43°44' E 007°25'  
2017-Jul-14 01:33N 43°42' E 007°21'0 0.1
2017-Jul-14 01:30N 43°42' E 007°21'0 0.0
2017-Jul-13 22:47N 43°42' E 007°21'0 0.0
2017-Jul-13 22:29N 43°42' E 007°21'0 0.0
2017-Jul-13 21:53N 43°42' E 007°21'0 0.0
2017-Jul-13 21:30N 43°42' E 007°21'0 0.0
2017-Jul-13 21:00N 43°42' E 007°21'0 0.0
2017-Jul-13 20:30N 43°42' E 007°21'0 0.0
2017-Jul-13 19:44N 43°42' E 007°21'0 0.0
2017-Jul-13 19:29N 43°42' E 007°21'0 0.0
2017-Jul-13 19:00N 43°42' E 007°21'0 0.0
2017-Jul-13 18:30N 43°42' E 007°21'0 0.0
2017-Jul-13 18:00N 43°42' E 007°21'14 6.1
2017-Jul-13 15:46N 43°31' E 007°09'311.1
2017-Jul-13 15:30N 43°29' E 007°05'611.1
2017-Jul-13 15:00N 43°26' E 006°59'  
Track history (hours):
 
Tides and Currents Weather Stations Pressure Air Temp Water Temp Dewpoint Dewpoint Depression Visibility Wind Speed Wind Dir Waves Ship Positions

Air

Last reported at 2017-Jul-23 01:30 UTC. Time now 2017-Jul-25 06:51 UTC.
Position N 42°60' E 007°03'.

Length 50 m; draft 3 m.

Type: Pleasure craft. MMSI: 319780000.

Date/timePositionNaut miles runAvg speedWind from/ knotsBaromVisibWave heightAir tempDewpointWater temp
2017-Jul-23 01:30N 42°60' E 007°03'611.0
2017-Jul-23 00:57N 42°57' E 007°10'511.1
2017-Jul-23 00:30N 42°54' E 007°16'1611.4
2017-Jul-22 23:04N 42°46' E 007°35'811.3
2017-Jul-22 22:20N 42°41' E 007°44'511.2
2017-Jul-22 21:52N 42°38' E 007°51'411.2
2017-Jul-22 21:29N 42°36' E 007°56'511.2
2017-Jul-22 21:00N 42°33' E 008°02'611.3
2017-Jul-22 20:30N 42°31' E 008°08'611.2
2017-Jul-22 20:00N 42°28' E 008°15'611.4
2017-Jul-22 19:30N 42°25' E 008°22'611.5
2017-Jul-22 19:00N 42°22' E 008°28'39 0.9
2017-Jul-20 23:48N 42°44' E 009°12'0 0.0
2017-Jul-20 23:24N 42°44' E 009°12'0 0.0
2017-Jul-20 18:33N 42°44' E 009°12'0 0.0
2017-Jul-20 13:38N 42°44' E 009°12'0 0.1
2017-Jul-20 13:29N 42°44' E 009°12'0 0.1
2017-Jul-20 12:49N 42°44' E 009°12'0 0.0
2017-Jul-20 12:26N 42°44' E 009°12'0 0.0
2017-Jul-20 12:00N 42°44' E 009°12'4 0.2
2017-Jul-19 17:53N 42°41' E 009°17'0 0.0
2017-Jul-19 17:30N 42°41' E 009°17'0 0.0
2017-Jul-19 16:59N 42°41' E 009°17'0 0.0
2017-Jul-19 16:25N 42°41' E 009°17'13 9.2
2017-Jul-19 14:57N 42°54' E 009°17'5 5.9
2017-Jul-19 14:08N 42°58' E 009°21'0 0.0
2017-Jul-19 13:36N 42°58' E 009°21'0 0.0
2017-Jul-19 13:30N 42°58' E 009°21'0 0.0
2017-Jul-19 12:59N 42°58' E 009°21'1 0.1
2017-Jul-19 05:36N 42°58' E 009°20'311.9
2017-Jul-19 05:19N 42°60' E 009°16'411.7
2017-Jul-19 05:00N 43°02' E 009°11'611.8
2017-Jul-19 04:30N 43°04' E 009°04'812.2
2017-Jul-19 03:50N 43°08' E 008°54'412.0
2017-Jul-19 03:31N 43°10' E 008°49'4412.1
2017-Jul-18 23:51N 43°29' E 007°55'411.5
2017-Jul-18 23:30N 43°31' E 007°50'611.4
2017-Jul-18 23:00N 43°34' E 007°43'711.7
2017-Jul-18 22:25N 43°37' E 007°34'11 1.5
2017-Jul-18 14:44N 43°42' E 007°20'4 0.2
2017-Jul-17 15:48N 43°44' E 007°25'0 0.0
2017-Jul-17 15:30N 43°44' E 007°25'  
2017-Jul-14 01:33N 43°42' E 007°21'0 0.1
2017-Jul-14 01:30N 43°42' E 007°21'0 0.0
2017-Jul-13 22:47N 43°42' E 007°21'0 0.0
2017-Jul-13 22:29N 43°42' E 007°21'0 0.0
2017-Jul-13 21:53N 43°42' E 007°21'0 0.0
2017-Jul-13 21:30N 43°42' E 007°21'0 0.0
2017-Jul-13 21:00N 43°42' E 007°21'0 0.0
2017-Jul-13 20:30N 43°42' E 007°21'0 0.0
2017-Jul-13 19:44N 43°42' E 007°21'0 0.0
2017-Jul-13 19:29N 43°42' E 007°21'0 0.0
2017-Jul-13 19:00N 43°42' E 007°21'0 0.0
2017-Jul-13 18:30N 43°42' E 007°21'0 0.0
2017-Jul-13 18:00N 43°42' E 007°21'14 6.1
2017-Jul-13 15:46N 43°31' E 007°09'311.1
2017-Jul-13 15:30N 43°29' E 007°05'611.1
2017-Jul-13 15:00N 43°26' E 006°59'  

Dump ship's entire track history